sensor_id;sensor_type;location;lat;lon;timestamp;P1;durP1;ratioP1;P2;durP2;ratioP2
70929;SDS011;58588;48.102;19.682;2023-10-13T00:01:35;13.85;;;7.97;;
70929;SDS011;58588;48.102;19.682;2023-10-13T00:04:39;13.30;;;7.47;;
70929;SDS011;58588;48.102;19.682;2023-10-13T00:07:42;15.10;;;7.50;;
70929;SDS011;58588;48.102;19.682;2023-10-13T00:10:44;13.35;;;7.28;;
70929;SDS011;58588;48.102;19.682;2023-10-13T00:13:47;12.00;;;6.83;;
70929;SDS011;58588;48.102;19.682;2023-10-13T00:16:51;14.98;;;6.60;;
70929;SDS011;58588;48.102;19.682;2023-10-13T00:20:05;12.93;;;7.15;;
70929;SDS011;58588;48.102;19.682;2023-10-13T00:23:13;13.50;;;7.45;;
70929;SDS011;58588;48.102;19.682;2023-10-13T00:26:15;11.48;;;7.03;;
70929;SDS011;58588;48.102;19.682;2023-10-13T00:29:18;13.27;;;8.53;;
70929;SDS011;58588;48.102;19.682;2023-10-13T00:32:29;14.75;;;8.30;;
70929;SDS011;58588;48.102;19.682;2023-10-13T00:35:33;16.02;;;9.07;;
70929;SDS011;58588;48.102;19.682;2023-10-13T00:38:42;18.85;;;9.00;;
70929;SDS011;58588;48.102;19.682;2023-10-13T00:41:48;14.32;;;9.02;;
70929;SDS011;58588;48.102;19.682;2023-10-13T00:44:59;21.23;;;9.47;;
70929;SDS011;58588;48.102;19.682;2023-10-13T00:48:02;13.88;;;8.23;;
70929;SDS011;58588;48.102;19.682;2023-10-13T00:51:12;17.55;;;9.20;;
70929;SDS011;58588;48.102;19.682;2023-10-13T00:54:32;17.75;;;9.52;;
70929;SDS011;58588;48.102;19.682;2023-10-13T00:57:37;18.60;;;9.60;;
70929;SDS011;58588;48.102;19.682;2023-10-13T01:00:40;16.67;;;9.67;;
70929;SDS011;58588;48.102;19.682;2023-10-13T01:03:48;16.95;;;9.60;;
70929;SDS011;58588;48.102;19.682;2023-10-13T01:06:56;17.20;;;9.63;;
70929;SDS011;58588;48.102;19.682;2023-10-13T01:09:59;17.30;;;9.27;;
70929;SDS011;58588;48.102;19.682;2023-10-13T01:13:04;16.75;;;9.40;;
70929;SDS011;58588;48.102;19.682;2023-10-13T01:16:07;15.93;;;9.00;;
70929;SDS011;58588;48.102;19.682;2023-10-13T01:19:08;18.83;;;9.65;;
70929;SDS011;58588;48.102;19.682;2023-10-13T01:22:13;14.38;;;8.73;;
70929;SDS011;58588;48.102;19.682;2023-10-13T01:25:17;15.68;;;9.40;;
70929;SDS011;58588;48.102;19.682;2023-10-13T01:28:19;15.03;;;9.07;;
70929;SDS011;58588;48.102;19.682;2023-10-13T01:31:22;14.70;;;8.35;;
70929;SDS011;58588;48.102;19.682;2023-10-13T01:34:29;14.80;;;8.88;;
70929;SDS011;58588;48.102;19.682;2023-10-13T01:37:33;15.40;;;8.90;;
70929;SDS011;58588;48.102;19.682;2023-10-13T01:40:35;14.87;;;7.60;;
70929;SDS011;58588;48.102;19.682;2023-10-13T01:43:38;14.15;;;8.43;;
70929;SDS011;58588;48.102;19.682;2023-10-13T01:46:38;15.48;;;8.07;;
70929;SDS011;58588;48.102;19.682;2023-10-13T01:49:42;17.65;;;8.45;;
70929;SDS011;58588;48.102;19.682;2023-10-13T01:52:47;14.40;;;7.87;;
70929;SDS011;58588;48.102;19.682;2023-10-13T01:55:50;13.02;;;7.20;;
70929;SDS011;58588;48.102;19.682;2023-10-13T01:58:51;14.77;;;8.18;;
70929;SDS011;58588;48.102;19.682;2023-10-13T02:01:53;12.93;;;8.07;;
70929;SDS011;58588;48.102;19.682;2023-10-13T02:04:58;12.20;;;7.70;;
70929;SDS011;58588;48.102;19.682;2023-10-13T02:08:00;14.27;;;7.57;;
70929;SDS011;58588;48.102;19.682;2023-10-13T02:11:04;14.60;;;7.78;;
70929;SDS011;58588;48.102;19.682;2023-10-13T02:14:07;17.00;;;8.23;;
70929;SDS011;58588;48.102;19.682;2023-10-13T02:17:12;14.80;;;7.93;;
70929;SDS011;58588;48.102;19.682;2023-10-13T02:20:13;13.48;;;7.35;;
70929;SDS011;58588;48.102;19.682;2023-10-13T02:23:15;14.53;;;8.47;;
70929;SDS011;58588;48.102;19.682;2023-10-13T02:26:18;15.65;;;8.88;;
70929;SDS011;58588;48.102;19.682;2023-10-13T02:29:30;18.38;;;9.02;;
70929;SDS011;58588;48.102;19.682;2023-10-13T02:32:39;14.00;;;8.07;;
70929;SDS011;58588;48.102;19.682;2023-10-13T02:35:43;18.83;;;9.07;;
70929;SDS011;58588;48.102;19.682;2023-10-13T02:38:51;15.30;;;9.40;;
70929;SDS011;58588;48.102;19.682;2023-10-13T02:41:54;16.20;;;9.70;;
70929;SDS011;58588;48.102;19.682;2023-10-13T02:44:56;16.52;;;9.00;;
70929;SDS011;58588;48.102;19.682;2023-10-13T02:47:58;14.52;;;8.00;;
70929;SDS011;58588;48.102;19.682;2023-10-13T02:51:13;14.95;;;8.75;;
70929;SDS011;58588;48.102;19.682;2023-10-13T02:54:16;17.17;;;9.27;;
70929;SDS011;58588;48.102;19.682;2023-10-13T02:57:20;17.73;;;9.43;;
70929;SDS011;58588;48.102;19.682;2023-10-13T03:00:23;16.30;;;9.00;;
70929;SDS011;58588;48.102;19.682;2023-10-13T03:03:31;15.73;;;8.68;;
70929;SDS011;58588;48.102;19.682;2023-10-13T03:06:34;16.08;;;8.70;;
70929;SDS011;58588;48.102;19.682;2023-10-13T03:09:40;15.77;;;9.00;;
70929;SDS011;58588;48.102;19.682;2023-10-13T03:12:51;16.60;;;9.45;;
70929;SDS011;58588;48.102;19.682;2023-10-13T03:15:53;16.30;;;8.60;;
70929;SDS011;58588;48.102;19.682;2023-10-13T03:18:55;17.00;;;8.98;;
70929;SDS011;58588;48.102;19.682;2023-10-13T03:21:57;17.80;;;8.70;;
70929;SDS011;58588;48.102;19.682;2023-10-13T03:25:06;27.13;;;14.97;;
70929;SDS011;58588;48.102;19.682;2023-10-13T03:28:14;17.42;;;10.20;;
70929;SDS011;58588;48.102;19.682;2023-10-13T03:31:23;17.85;;;9.50;;
70929;SDS011;58588;48.102;19.682;2023-10-13T03:34:28;15.75;;;9.05;;
70929;SDS011;58588;48.102;19.682;2023-10-13T03:37:30;18.58;;;10.05;;
70929;SDS011;58588;48.102;19.682;2023-10-13T03:40:39;18.43;;;10.40;;
70929;SDS011;58588;48.102;19.682;2023-10-13T03:43:42;16.88;;;9.07;;
70929;SDS011;58588;48.102;19.682;2023-10-13T03:46:51;18.80;;;10.93;;
70929;SDS011;58588;48.102;19.682;2023-10-13T03:49:54;18.38;;;11.07;;
70929;SDS011;58588;48.102;19.682;2023-10-13T03:53:15;18.60;;;10.40;;
70929;SDS011;58588;48.102;19.682;2023-10-13T03:56:18;19.27;;;10.80;;
70929;SDS011;58588;48.102;19.682;2023-10-13T03:59:28;14.82;;;9.27;;
70929;SDS011;58588;48.102;19.682;2023-10-13T04:02:35;15.73;;;9.38;;
70929;SDS011;58588;48.102;19.682;2023-10-13T04:05:37;18.38;;;9.75;;
70929;SDS011;58588;48.102;19.682;2023-10-13T04:08:44;18.55;;;9.57;;
70929;SDS011;58588;48.102;19.682;2023-10-13T04:11:48;18.40;;;9.10;;
70929;SDS011;58588;48.102;19.682;2023-10-13T04:15:16;18.50;;;10.15;;
70929;SDS011;58588;48.102;19.682;2023-10-13T04:18:23;16.27;;;9.43;;
70929;SDS011;58588;48.102;19.682;2023-10-13T04:21:34;15.13;;;9.07;;
70929;SDS011;58588;48.102;19.682;2023-10-13T04:24:55;16.25;;;9.00;;
70929;SDS011;58588;48.102;19.682;2023-10-13T04:28:22;16.03;;;8.90;;
70929;SDS011;58588;48.102;19.682;2023-10-13T04:31:39;16.10;;;8.45;;
70929;SDS011;58588;48.102;19.682;2023-10-13T04:35:01;14.82;;;8.73;;
70929;SDS011;58588;48.102;19.682;2023-10-13T04:38:10;23.83;;;14.50;;
70929;SDS011;58588;48.102;19.682;2023-10-13T04:41:19;19.35;;;9.75;;
70929;SDS011;58588;48.102;19.682;2023-10-13T04:44:23;29.33;;;18.60;;
70929;SDS011;58588;48.102;19.682;2023-10-13T04:47:40;25.45;;;14.57;;
70929;SDS011;58588;48.102;19.682;2023-10-13T04:50:48;21.13;;;12.27;;
70929;SDS011;58588;48.102;19.682;2023-10-13T04:53:53;17.35;;;10.60;;
70929;SDS011;58588;48.102;19.682;2023-10-13T04:57:04;18.20;;;9.93;;
70929;SDS011;58588;48.102;19.682;2023-10-13T05:00:31;13.53;;;8.23;;
70929;SDS011;58588;48.102;19.682;2023-10-13T05:03:52;14.57;;;8.38;;
70929;SDS011;58588;48.102;19.682;2023-10-13T05:07:08;15.55;;;8.85;;
70929;SDS011;58588;48.102;19.682;2023-10-13T05:10:28;13.35;;;7.82;;
70929;SDS011;58588;48.102;19.682;2023-10-13T05:13:47;14.25;;;8.43;;
70929;SDS011;58588;48.102;19.682;2023-10-13T05:17:06;18.90;;;11.73;;
70929;SDS011;58588;48.102;19.682;2023-10-13T05:20:27;17.52;;;10.07;;
70929;SDS011;58588;48.102;19.682;2023-10-13T05:24:01;18.20;;;10.68;;
70929;SDS011;58588;48.102;19.682;2023-10-13T05:27:21;16.45;;;9.80;;
70929;SDS011;58588;48.102;19.682;2023-10-13T05:30:40;20.67;;;12.13;;
70929;SDS011;58588;48.102;19.682;2023-10-13T05:33:59;18.90;;;9.60;;
70929;SDS011;58588;48.102;19.682;2023-10-13T05:37:20;21.05;;;9.82;;
70929;SDS011;58588;48.102;19.682;2023-10-13T05:40:39;18.55;;;9.95;;
70929;SDS011;58588;48.102;19.682;2023-10-13T05:43:59;12.65;;;8.32;;
70929;SDS011;58588;48.102;19.682;2023-10-13T05:47:18;15.63;;;8.68;;
70929;SDS011;58588;48.102;19.682;2023-10-13T05:50:38;16.30;;;8.77;;
70929;SDS011;58588;48.102;19.682;2023-10-13T05:54:15;15.18;;;8.35;;
70929;SDS011;58588;48.102;19.682;2023-10-13T05:57:34;15.32;;;8.10;;
70929;SDS011;58588;48.102;19.682;2023-10-13T06:00:55;14.00;;;8.35;;
70929;SDS011;58588;48.102;19.682;2023-10-13T06:04:15;15.38;;;8.82;;
70929;SDS011;58588;48.102;19.682;2023-10-13T06:07:34;14.60;;;7.97;;
70929;SDS011;58588;48.102;19.682;2023-10-13T06:11:01;16.23;;;8.32;;
70929;SDS011;58588;48.102;19.682;2023-10-13T06:14:18;26.15;;;9.52;;
70929;SDS011;58588;48.102;19.682;2023-10-13T06:17:37;21.98;;;9.90;;
70929;SDS011;58588;48.102;19.682;2023-10-13T06:20:56;20.48;;;11.00;;
70929;SDS011;58588;48.102;19.682;2023-10-13T06:24:16;17.90;;;9.57;;
70929;SDS011;58588;48.102;19.682;2023-10-13T06:27:37;19.33;;;10.63;;
70929;SDS011;58588;48.102;19.682;2023-10-13T06:30:56;20.75;;;9.20;;
70929;SDS011;58588;48.102;19.682;2023-10-13T06:34:03;16.05;;;8.80;;
70929;SDS011;58588;48.102;19.682;2023-10-13T06:37:05;15.95;;;9.10;;
70929;SDS011;58588;48.102;19.682;2023-10-13T06:40:22;15.03;;;9.27;;
70929;SDS011;58588;48.102;19.682;2023-10-13T06:43:27;19.75;;;10.25;;
70929;SDS011;58588;48.102;19.682;2023-10-13T06:46:32;17.65;;;10.25;;
70929;SDS011;58588;48.102;19.682;2023-10-13T06:49:35;17.15;;;9.50;;
70929;SDS011;58588;48.102;19.682;2023-10-13T06:52:39;15.05;;;9.52;;
70929;SDS011;58588;48.102;19.682;2023-10-13T06:55:42;17.17;;;8.77;;
70929;SDS011;58588;48.102;19.682;2023-10-13T06:58:48;19.23;;;9.32;;
70929;SDS011;58588;48.102;19.682;2023-10-13T07:01:50;14.90;;;8.80;;
70929;SDS011;58588;48.102;19.682;2023-10-13T07:04:52;17.65;;;9.40;;
70929;SDS011;58588;48.102;19.682;2023-10-13T07:07:57;16.58;;;9.23;;
70929;SDS011;58588;48.102;19.682;2023-10-13T07:10:59;17.40;;;9.10;;
70929;SDS011;58588;48.102;19.682;2023-10-13T07:14:06;17.70;;;9.23;;
70929;SDS011;58588;48.102;19.682;2023-10-13T07:17:11;17.75;;;9.90;;
70929;SDS011;58588;48.102;19.682;2023-10-13T07:20:13;19.23;;;10.80;;
70929;SDS011;58588;48.102;19.682;2023-10-13T07:23:16;22.75;;;13.10;;
70929;SDS011;58588;48.102;19.682;2023-10-13T07:26:20;19.43;;;8.30;;
70929;SDS011;58588;48.102;19.682;2023-10-13T07:29:25;12.90;;;8.30;;
70929;SDS011;58588;48.102;19.682;2023-10-13T07:32:27;14.23;;;8.27;;
70929;SDS011;58588;48.102;19.682;2023-10-13T07:35:29;17.45;;;8.05;;
70929;SDS011;58588;48.102;19.682;2023-10-13T07:38:35;21.10;;;8.90;;
70929;SDS011;58588;48.102;19.682;2023-10-13T07:41:38;14.67;;;9.10;;
70929;SDS011;58588;48.102;19.682;2023-10-13T07:44:43;15.68;;;8.55;;
70929;SDS011;58588;48.102;19.682;2023-10-13T07:47:47;15.27;;;8.35;;
70929;SDS011;58588;48.102;19.682;2023-10-13T07:50:58;14.40;;;8.30;;
70929;SDS011;58588;48.102;19.682;2023-10-13T07:54:03;16.75;;;8.88;;
70929;SDS011;58588;48.102;19.682;2023-10-13T07:57:08;19.07;;;10.03;;
70929;SDS011;58588;48.102;19.682;2023-10-13T08:00:16;16.95;;;9.07;;
70929;SDS011;58588;48.102;19.682;2023-10-13T08:03:29;16.67;;;9.50;;
70929;SDS011;58588;48.102;19.682;2023-10-13T08:06:36;14.90;;;9.10;;
70929;SDS011;58588;48.102;19.682;2023-10-13T08:09:40;16.08;;;8.82;;
70929;SDS011;58588;48.102;19.682;2023-10-13T08:12:51;13.90;;;8.20;;
70929;SDS011;58588;48.102;19.682;2023-10-13T08:15:56;17.48;;;8.68;;
70929;SDS011;58588;48.102;19.682;2023-10-13T08:19:06;14.05;;;8.15;;
70929;SDS011;58588;48.102;19.682;2023-10-13T08:22:11;16.92;;;8.73;;
70929;SDS011;58588;48.102;19.682;2023-10-13T08:25:24;14.55;;;7.85;;
70929;SDS011;58588;48.102;19.682;2023-10-13T08:28:46;13.33;;;7.43;;
70929;SDS011;58588;48.102;19.682;2023-10-13T08:31:55;15.60;;;7.20;;
70929;SDS011;58588;48.102;19.682;2023-10-13T08:35:14;13.20;;;6.63;;
70929;SDS011;58588;48.102;19.682;2023-10-13T08:38:34;12.85;;;6.40;;
70929;SDS011;58588;48.102;19.682;2023-10-13T08:41:51;14.90;;;7.32;;
70929;SDS011;58588;48.102;19.682;2023-10-13T08:45:12;14.63;;;6.53;;
70929;SDS011;58588;48.102;19.682;2023-10-13T08:48:43;14.52;;;6.25;;
70929;SDS011;58588;48.102;19.682;2023-10-13T08:51:47;12.93;;;6.25;;
70929;SDS011;58588;48.102;19.682;2023-10-13T08:55:05;13.93;;;6.40;;
70929;SDS011;58588;48.102;19.682;2023-10-13T08:58:21;12.00;;;5.68;;
70929;SDS011;58588;48.102;19.682;2023-10-13T09:01:31;14.10;;;5.37;;
70929;SDS011;58588;48.102;19.682;2023-10-13T09:04:47;14.38;;;5.10;;
70929;SDS011;58588;48.102;19.682;2023-10-13T09:07:59;11.52;;;5.65;;
70929;SDS011;58588;48.102;19.682;2023-10-13T09:11:10;12.50;;;5.20;;
70929;SDS011;58588;48.102;19.682;2023-10-13T09:14:12;10.65;;;4.88;;
70929;SDS011;58588;48.102;19.682;2023-10-13T09:17:40;13.07;;;5.47;;
70929;SDS011;58588;48.102;19.682;2023-10-13T09:20:43;10.98;;;4.90;;
70929;SDS011;58588;48.102;19.682;2023-10-13T09:23:46;11.38;;;5.10;;
70929;SDS011;58588;48.102;19.682;2023-10-13T09:26:49;8.98;;;4.40;;
70929;SDS011;58588;48.102;19.682;2023-10-13T09:29:57;10.95;;;4.30;;
70929;SDS011;58588;48.102;19.682;2023-10-13T09:33:08;11.77;;;4.70;;
70929;SDS011;58588;48.102;19.682;2023-10-13T09:36:11;10.38;;;4.50;;
70929;SDS011;58588;48.102;19.682;2023-10-13T09:39:14;9.98;;;4.00;;
70929;SDS011;58588;48.102;19.682;2023-10-13T09:42:30;9.77;;;3.78;;
70929;SDS011;58588;48.102;19.682;2023-10-13T09:45:31;11.32;;;3.83;;
70929;SDS011;58588;48.102;19.682;2023-10-13T09:48:36;11.77;;;3.80;;
70929;SDS011;58588;48.102;19.682;2023-10-13T09:51:42;11.63;;;3.30;;
70929;SDS011;58588;48.102;19.682;2023-10-13T09:54:58;10.00;;;3.30;;
70929;SDS011;58588;48.102;19.682;2023-10-13T09:58:09;11.57;;;3.60;;
70929;SDS011;58588;48.102;19.682;2023-10-13T10:01:14;12.35;;;3.53;;
70929;SDS011;58588;48.102;19.682;2023-10-13T10:04:21;13.40;;;3.73;;
70929;SDS011;58588;48.102;19.682;2023-10-13T10:07:25;9.20;;;3.22;;
70929;SDS011;58588;48.102;19.682;2023-10-13T10:10:32;10.70;;;3.25;;
70929;SDS011;58588;48.102;19.682;2023-10-13T10:13:51;11.77;;;3.55;;
70929;SDS011;58588;48.102;19.682;2023-10-13T10:17:02;11.63;;;3.45;;
70929;SDS011;58588;48.102;19.682;2023-10-13T10:20:09;10.57;;;3.47;;
70929;SDS011;58588;48.102;19.682;2023-10-13T10:23:25;14.68;;;3.70;;
70929;SDS011;58588;48.102;19.682;2023-10-13T10:26:30;10.10;;;3.80;;
70929;SDS011;58588;48.102;19.682;2023-10-13T10:29:32;9.50;;;3.67;;
70929;SDS011;58588;48.102;19.682;2023-10-13T10:32:35;9.43;;;3.28;;
70929;SDS011;58588;48.102;19.682;2023-10-13T10:35:41;9.93;;;3.70;;
70929;SDS011;58588;48.102;19.682;2023-10-13T10:38:54;9.73;;;3.60;;
70929;SDS011;58588;48.102;19.682;2023-10-13T10:42:07;12.75;;;3.60;;
70929;SDS011;58588;48.102;19.682;2023-10-13T10:45:15;12.35;;;3.30;;
70929;SDS011;58588;48.102;19.682;2023-10-13T10:48:22;11.00;;;3.38;;
70929;SDS011;58588;48.102;19.682;2023-10-13T10:51:31;11.47;;;3.50;;
70929;SDS011;58588;48.102;19.682;2023-10-13T10:54:36;11.40;;;3.60;;
70929;SDS011;58588;48.102;19.682;2023-10-13T10:57:44;9.98;;;3.40;;
70929;SDS011;58588;48.102;19.682;2023-10-13T11:00:49;10.57;;;3.58;;
70929;SDS011;58588;48.102;19.682;2023-10-13T11:04:02;12.73;;;3.75;;
70929;SDS011;58588;48.102;19.682;2023-10-13T11:07:20;9.27;;;3.43;;
70929;SDS011;58588;48.102;19.682;2023-10-13T11:10:23;10.27;;;3.50;;
70929;SDS011;58588;48.102;19.682;2023-10-13T11:13:38;11.93;;;3.90;;
70929;SDS011;58588;48.102;19.682;2023-10-13T11:16:51;10.77;;;3.35;;
70929;SDS011;58588;48.102;19.682;2023-10-13T11:19:54;14.60;;;3.75;;
70929;SDS011;58588;48.102;19.682;2023-10-13T11:22:57;9.33;;;3.73;;
70929;SDS011;58588;48.102;19.682;2023-10-13T11:26:01;13.20;;;3.50;;
70929;SDS011;58588;48.102;19.682;2023-10-13T11:29:04;9.35;;;3.88;;
70929;SDS011;58588;48.102;19.682;2023-10-13T11:32:10;10.85;;;3.50;;
70929;SDS011;58588;48.102;19.682;2023-10-13T11:35:20;11.07;;;3.50;;
70929;SDS011;58588;48.102;19.682;2023-10-13T11:38:24;8.80;;;3.23;;
70929;SDS011;58588;48.102;19.682;2023-10-13T11:41:28;13.40;;;3.28;;
70929;SDS011;58588;48.102;19.682;2023-10-13T11:44:36;12.80;;;3.80;;
70929;SDS011;58588;48.102;19.682;2023-10-13T11:47:43;13.13;;;3.60;;
70929;SDS011;58588;48.102;19.682;2023-10-13T11:50:59;13.48;;;3.38;;
70929;SDS011;58588;48.102;19.682;2023-10-13T11:54:01;8.70;;;3.27;;
70929;SDS011;58588;48.102;19.682;2023-10-13T11:57:04;11.35;;;2.95;;
70929;SDS011;58588;48.102;19.682;2023-10-13T12:00:08;10.82;;;3.42;;
70929;SDS011;58588;48.102;19.682;2023-10-13T12:03:26;9.07;;;3.20;;
70929;SDS011;58588;48.102;19.682;2023-10-13T12:06:46;10.20;;;3.67;;
70929;SDS011;58588;48.102;19.682;2023-10-13T12:10:03;8.93;;;3.20;;
70929;SDS011;58588;48.102;19.682;2023-10-13T12:13:08;9.75;;;3.20;;
70929;SDS011;58588;48.102;19.682;2023-10-13T12:16:11;13.05;;;3.50;;
70929;SDS011;58588;48.102;19.682;2023-10-13T12:19:13;8.88;;;3.10;;
70929;SDS011;58588;48.102;19.682;2023-10-13T12:22:16;8.90;;;2.78;;
70929;SDS011;58588;48.102;19.682;2023-10-13T12:25:25;9.57;;;3.40;;
70929;SDS011;58588;48.102;19.682;2023-10-13T12:28:45;12.63;;;3.58;;
70929;SDS011;58588;48.102;19.682;2023-10-13T12:31:52;10.68;;;3.60;;
70929;SDS011;58588;48.102;19.682;2023-10-13T12:35:08;10.85;;;2.90;;
70929;SDS011;58588;48.102;19.682;2023-10-13T12:38:27;10.07;;;3.30;;
70929;SDS011;58588;48.102;19.682;2023-10-13T12:41:37;10.87;;;3.70;;
70929;SDS011;58588;48.102;19.682;2023-10-13T12:44:58;9.73;;;3.60;;
70929;SDS011;58588;48.102;19.682;2023-10-13T12:48:17;11.18;;;3.40;;
70929;SDS011;58588;48.102;19.682;2023-10-13T12:51:36;9.43;;;3.25;;
70929;SDS011;58588;48.102;19.682;2023-10-13T12:54:52;9.30;;;3.20;;
70929;SDS011;58588;48.102;19.682;2023-10-13T12:58:06;10.60;;;3.40;;
70929;SDS011;58588;48.102;19.682;2023-10-13T13:01:11;11.52;;;3.50;;
70929;SDS011;58588;48.102;19.682;2023-10-13T13:04:18;11.00;;;3.95;;
70929;SDS011;58588;48.102;19.682;2023-10-13T13:07:21;11.73;;;3.83;;
70929;SDS011;58588;48.102;19.682;2023-10-13T13:10:28;11.20;;;4.20;;
70929;SDS011;58588;48.102;19.682;2023-10-13T13:13:36;11.60;;;4.07;;
70929;SDS011;58588;48.102;19.682;2023-10-13T13:16:42;13.15;;;4.30;;
70929;SDS011;58588;48.102;19.682;2023-10-13T13:19:48;11.60;;;4.20;;
70929;SDS011;58588;48.102;19.682;2023-10-13T13:22:52;10.85;;;3.83;;
70929;SDS011;58588;48.102;19.682;2023-10-13T13:25:55;11.77;;;4.25;;
70929;SDS011;58588;48.102;19.682;2023-10-13T13:28:58;13.10;;;3.90;;
70929;SDS011;58588;48.102;19.682;2023-10-13T13:32:02;10.90;;;3.97;;
70929;SDS011;58588;48.102;19.682;2023-10-13T13:35:05;9.10;;;4.05;;
70929;SDS011;58588;48.102;19.682;2023-10-13T13:38:08;10.05;;;4.00;;
70929;SDS011;58588;48.102;19.682;2023-10-13T13:41:22;13.25;;;4.30;;
70929;SDS011;58588;48.102;19.682;2023-10-13T13:44:24;13.53;;;4.00;;
70929;SDS011;58588;48.102;19.682;2023-10-13T13:47:37;12.82;;;4.20;;
70929;SDS011;58588;48.102;19.682;2023-10-13T13:50:39;14.68;;;4.15;;
70929;SDS011;58588;48.102;19.682;2023-10-13T13:53:41;12.40;;;4.05;;
70929;SDS011;58588;48.102;19.682;2023-10-13T13:56:48;10.52;;;4.10;;
70929;SDS011;58588;48.102;19.682;2023-10-13T13:59:51;15.13;;;4.23;;
70929;SDS011;58588;48.102;19.682;2023-10-13T14:02:55;11.75;;;4.32;;
70929;SDS011;58588;48.102;19.682;2023-10-13T14:05:58;15.02;;;4.32;;
70929;SDS011;58588;48.102;19.682;2023-10-13T14:09:00;11.48;;;4.32;;
70929;SDS011;58588;48.102;19.682;2023-10-13T14:12:06;15.45;;;4.72;;
70929;SDS011;58588;48.102;19.682;2023-10-13T14:15:25;15.10;;;4.30;;
70929;SDS011;58588;48.102;19.682;2023-10-13T14:18:29;9.88;;;4.25;;
70929;SDS011;58588;48.102;19.682;2023-10-13T14:21:32;15.27;;;4.32;;
70929;SDS011;58588;48.102;19.682;2023-10-13T14:24:35;13.77;;;4.13;;
70929;SDS011;58588;48.102;19.682;2023-10-13T14:27:43;11.82;;;4.45;;
70929;SDS011;58588;48.102;19.682;2023-10-13T14:30:45;10.20;;;4.63;;
70929;SDS011;58588;48.102;19.682;2023-10-13T14:33:48;14.23;;;4.25;;
70929;SDS011;58588;48.102;19.682;2023-10-13T14:36:50;10.00;;;3.88;;
70929;SDS011;58588;48.102;19.682;2023-10-13T14:39:54;15.27;;;5.38;;
70929;SDS011;58588;48.102;19.682;2023-10-13T14:42:57;12.40;;;4.53;;
70929;SDS011;58588;48.102;19.682;2023-10-13T14:45:59;12.07;;;5.00;;
70929;SDS011;58588;48.102;19.682;2023-10-13T14:49:02;16.10;;;4.75;;
70929;SDS011;58588;48.102;19.682;2023-10-13T14:52:04;11.95;;;4.43;;
70929;SDS011;58588;48.102;19.682;2023-10-13T14:55:07;12.82;;;4.90;;
70929;SDS011;58588;48.102;19.682;2023-10-13T14:58:18;11.35;;;5.22;;
70929;SDS011;58588;48.102;19.682;2023-10-13T15:01:23;13.97;;;5.93;;
70929;SDS011;58588;48.102;19.682;2023-10-13T15:04:28;12.57;;;6.32;;
70929;SDS011;58588;48.102;19.682;2023-10-13T15:07:32;13.35;;;6.15;;
70929;SDS011;58588;48.102;19.682;2023-10-13T15:10:34;16.88;;;7.75;;
70929;SDS011;58588;48.102;19.682;2023-10-13T15:13:37;11.35;;;5.18;;
70929;SDS011;58588;48.102;19.682;2023-10-13T15:16:39;13.63;;;5.87;;
70929;SDS011;58588;48.102;19.682;2023-10-13T15:19:44;13.18;;;5.32;;
70929;SDS011;58588;48.102;19.682;2023-10-13T15:22:46;11.00;;;5.35;;
70929;SDS011;58588;48.102;19.682;2023-10-13T15:25:49;11.85;;;5.60;;
70929;SDS011;58588;48.102;19.682;2023-10-13T15:28:51;11.00;;;5.45;;
70929;SDS011;58588;48.102;19.682;2023-10-13T15:31:55;9.77;;;4.63;;
70929;SDS011;58588;48.102;19.682;2023-10-13T15:35:28;30.23;;;16.92;;
70929;SDS011;58588;48.102;19.682;2023-10-13T15:38:30;19.20;;;10.70;;
70929;SDS011;58588;48.102;19.682;2023-10-13T15:41:32;189.40;;;93.25;;
70929;SDS011;58588;48.102;19.682;2023-10-13T15:44:34;168.57;;;75.82;;
70929;SDS011;58588;48.102;19.682;2023-10-13T15:47:36;41.13;;;21.47;;
70929;SDS011;58588;48.102;19.682;2023-10-13T15:50:40;46.33;;;21.55;;
70929;SDS011;58588;48.102;19.682;2023-10-13T15:53:42;65.35;;;29.88;;
70929;SDS011;58588;48.102;19.682;2023-10-13T15:56:45;258.83;;;117.00;;
70929;SDS011;58588;48.102;19.682;2023-10-13T15:59:48;57.38;;;25.73;;
70929;SDS011;58588;48.102;19.682;2023-10-13T16:02:50;28.27;;;15.47;;
70929;SDS011;58588;48.102;19.682;2023-10-13T16:05:56;25.13;;;13.15;;
70929;SDS011;58588;48.102;19.682;2023-10-13T16:08:57;21.63;;;12.75;;
70929;SDS011;58588;48.102;19.682;2023-10-13T16:11:59;49.75;;;23.75;;
70929;SDS011;58588;48.102;19.682;2023-10-13T16:15:01;58.30;;;29.05;;
70929;SDS011;58588;48.102;19.682;2023-10-13T16:18:06;55.30;;;28.37;;
70929;SDS011;58588;48.102;19.682;2023-10-13T16:21:09;35.40;;;17.77;;
70929;SDS011;58588;48.102;19.682;2023-10-13T16:24:12;26.20;;;10.52;;
70929;SDS011;58588;48.102;19.682;2023-10-13T16:27:17;63.70;;;29.40;;
70929;SDS011;58588;48.102;19.682;2023-10-13T16:30:20;816.75;;;459.35;;
70929;SDS011;58588;48.102;19.682;2023-10-13T16:33:22;756.40;;;400.10;;
70929;SDS011;58588;48.102;19.682;2023-10-13T16:36:25;357.02;;;154.50;;
70929;SDS011;58588;48.102;19.682;2023-10-13T16:39:27;375.55;;;134.57;;
70929;SDS011;58588;48.102;19.682;2023-10-13T16:42:29;314.60;;;107.43;;
70929;SDS011;58588;48.102;19.682;2023-10-13T16:45:35;111.32;;;43.10;;
70929;SDS011;58588;48.102;19.682;2023-10-13T16:48:37;97.33;;;38.03;;
70929;SDS011;58588;48.102;19.682;2023-10-13T16:51:40;66.60;;;29.05;;
70929;SDS011;58588;48.102;19.682;2023-10-13T16:54:42;31.95;;;15.68;;
70929;SDS011;58588;48.102;19.682;2023-10-13T16:57:44;27.85;;;13.30;;
70929;SDS011;58588;48.102;19.682;2023-10-13T17:00:50;23.08;;;13.15;;
70929;SDS011;58588;48.102;19.682;2023-10-13T17:03:52;23.90;;;12.53;;
70929;SDS011;58588;48.102;19.682;2023-10-13T17:06:56;38.47;;;18.70;;
70929;SDS011;58588;48.102;19.682;2023-10-13T17:09:58;42.70;;;18.88;;
70929;SDS011;58588;48.102;19.682;2023-10-13T17:13:01;29.35;;;14.48;;
70929;SDS011;58588;48.102;19.682;2023-10-13T17:16:09;215.75;;;73.43;;
70929;SDS011;58588;48.102;19.682;2023-10-13T17:19:13;106.83;;;38.53;;
70929;SDS011;58588;48.102;19.682;2023-10-13T17:22:16;68.35;;;28.75;;
70929;SDS011;58588;48.102;19.682;2023-10-13T17:25:19;39.92;;;18.00;;
70929;SDS011;58588;48.102;19.682;2023-10-13T17:28:21;30.92;;;13.05;;
70929;SDS011;58588;48.102;19.682;2023-10-13T17:31:24;27.45;;;13.32;;
70929;SDS011;58588;48.102;19.682;2023-10-13T17:34:27;32.17;;;16.20;;
70929;SDS011;58588;48.102;19.682;2023-10-13T17:37:31;73.28;;;32.30;;
70929;SDS011;58588;48.102;19.682;2023-10-13T17:40:34;92.22;;;54.30;;
70929;SDS011;58588;48.102;19.682;2023-10-13T17:43:36;45.47;;;28.02;;
70929;SDS011;58588;48.102;19.682;2023-10-13T17:46:38;32.33;;;19.25;;
70929;SDS011;58588;48.102;19.682;2023-10-13T17:49:40;25.13;;;14.20;;
70929;SDS011;58588;48.102;19.682;2023-10-13T17:52:46;36.90;;;23.70;;
70929;SDS011;58588;48.102;19.682;2023-10-13T17:55:48;30.73;;;18.55;;
70929;SDS011;58588;48.102;19.682;2023-10-13T17:58:52;28.30;;;16.60;;
70929;SDS011;58588;48.102;19.682;2023-10-13T18:01:54;24.58;;;15.88;;
70929;SDS011;58588;48.102;19.682;2023-10-13T18:04:56;29.83;;;16.00;;
70929;SDS011;58588;48.102;19.682;2023-10-13T18:08:01;26.85;;;15.07;;
70929;SDS011;58588;48.102;19.682;2023-10-13T18:11:06;39.53;;;20.85;;
70929;SDS011;58588;48.102;19.682;2023-10-13T18:14:08;45.03;;;33.55;;